createdAt,value
2023-03-02T00:03:51.790Z,2.00
2023-03-02T00:24:30.522Z,1.25
2023-03-02T00:30:02.849Z,2.20
2023-03-02T03:46:57.940Z,3.30
2023-03-02T05:20:15.184Z,4.25
2023-03-02T06:50:49.874Z,1.75
2023-03-02T07:09:14.622Z,2.80
2023-03-02T07:20:36.370Z,3.70
2023-03-02T07:26:01.714Z,3.45
2023-03-02T07:31:41.715Z,1.38
2023-03-02T07:37:21.272Z,3.05
2023-03-02T07:42:47.956Z,9.98
2023-03-02T09:24:54.222Z,3.50
2023-03-02T09:30:31.200Z,2.60
2023-03-02T10:07:19.734Z,4.63
2023-03-02T10:13:30.567Z,4.22
2023-03-02T10:19:49.129Z,6.60
2023-03-02T10:25:35.828Z,6.05
2023-03-02T10:31:45.191Z,3.58
2023-03-02T10:58:59.281Z,4.60
2023-03-02T11:11:14.651Z,6.90
2023-03-02T11:17:51.824Z,4.10
2023-03-02T11:31:48.666Z,2.30
2023-03-02T11:37:57.402Z,3.63
2023-03-02T11:43:23.569Z,2.95
2023-03-02T11:49:32.568Z,1.40
2023-03-02T11:55:12.790Z,2.40
2023-03-02T12:01:01.077Z,4.28
2023-03-02T12:06:25.092Z,2.78
2023-03-02T12:18:21.119Z,3.85
2023-03-02T12:29:56.541Z,3.47
2023-03-02T12:43:31.476Z,4.78
2023-03-02T13:03:51.545Z,5.00
2023-03-02T13:09:19.527Z,7.85
2023-03-02T13:14:46.958Z,3.63
2023-03-02T13:20:39.093Z,4.53
2023-03-02T13:26:10.573Z,6.07
2023-03-02T13:31:57.512Z,6.78
2023-03-02T14:02:59.464Z,3.45
2023-03-02T14:08:24.592Z,2.50
2023-03-02T14:13:58.011Z,4.43
2023-03-02T14:19:22.452Z,1.23
2023-03-02T14:25:24.728Z,2.22
2023-03-02T14:30:50.223Z,3.22
2023-03-02T14:36:47.588Z,3.25
2023-03-02T14:42:06.752Z,1.55
2023-03-02T14:47:25.141Z,0.65
2023-03-02T14:53:06.173Z,2.03
2023-03-02T14:58:38.007Z,2.38
2023-03-02T15:42:38.044Z,3.10
2023-03-02T15:48:02.771Z,1.27
2023-03-02T15:53:25.357Z,1.70
2023-03-02T15:59:38.994Z,3.30
2023-03-02T16:05:21.912Z,0.43
2023-03-02T16:10:48.597Z,0.43
2023-03-02T16:16:57.376Z,0.80
2023-03-02T16:22:38.146Z,2.20
2023-03-02T16:28:06.748Z,2.88
2023-03-02T16:33:27.991Z,5.18
2023-03-02T16:38:54.958Z,2.17
2023-03-02T17:00:37.431Z,0.25
2023-03-02T17:05:43.260Z,0.40
2023-03-02T17:10:46.315Z,0.77
2023-03-02T17:15:49.021Z,0.55
2023-03-02T17:20:52.606Z,1.17
2023-03-02T17:25:56.263Z,0.85
2023-03-02T17:31:00.668Z,1.13
2023-03-02T17:36:11.971Z,0.93
2023-03-02T17:41:14.904Z,0.80
2023-03-02T17:46:20.533Z,0.60
2023-03-02T17:51:24.349Z,1.40
2023-03-02T17:56:28.424Z,1.67
2023-03-02T18:01:32.409Z,0.43
2023-03-02T18:06:36.175Z,0.95
2023-03-02T18:11:41.479Z,1.10
2023-03-02T18:16:44.292Z,3.50
2023-03-02T18:21:47.316Z,0.30
2023-03-02T18:26:49.922Z,0.93
2023-03-02T18:31:53.304Z,0.32
2023-03-02T18:36:56.062Z,0.50
2023-03-02T18:41:58.636Z,0.65
2023-03-02T18:47:02.152Z,1.23
2023-03-02T18:52:06.912Z,1.27
2023-03-02T18:57:10.293Z,0.90
2023-03-02T19:02:14.294Z,1.38
2023-03-02T19:07:17.253Z,1.15
2023-03-02T19:12:20.894Z,0.22
2023-03-02T19:17:24.280Z,1.23
2023-03-02T19:22:26.884Z,1.33
2023-03-02T19:27:29.794Z,0.38
2023-03-02T19:32:32.935Z,0.75
2023-03-02T19:37:35.822Z,0.20
2023-03-02T19:42:39.694Z,0.20
2023-03-02T19:47:43.108Z,1.58
2023-03-02T19:52:46.270Z,0.20
2023-03-02T19:57:55.773Z,0.57
2023-03-02T20:03:01.739Z,2.03
2023-03-02T20:08:05.494Z,0.57
2023-03-02T20:13:09.308Z,0.35
2023-03-02T20:18:19.122Z,0.38
2023-03-02T20:23:22.416Z,0.50
2023-03-02T20:28:26.335Z,0.40
2023-03-02T20:33:35.135Z,1.58
2023-03-02T20:38:44.320Z,0.80
2023-03-02T20:43:47.170Z,2.30
2023-03-02T20:48:50.300Z,0.40
2023-03-02T20:53:53.467Z,0.35
2023-03-02T20:58:56.373Z,1.38
2023-03-02T21:03:59.037Z,0.60
2023-03-02T21:09:02.870Z,0.30
2023-03-02T21:14:05.840Z,0.45
2023-03-02T21:19:14.203Z,0.43
2023-03-02T21:24:17.340Z,0.77
2023-03-02T21:29:22.818Z,0.40
2023-03-02T21:34:25.872Z,1.48
2023-03-02T21:39:28.773Z,0.68
2023-03-02T21:44:32.000Z,0.80
2023-03-02T21:49:34.872Z,0.30
2023-03-02T21:54:37.447Z,0.30
2023-03-02T21:59:40.326Z,0.30
2023-03-02T22:04:43.503Z,0.20
2023-03-02T22:09:46.434Z,0.22
2023-03-02T22:14:49.994Z,0.77
2023-03-02T22:19:54.247Z,0.95
2023-03-02T22:24:57.412Z,0.40
2023-03-02T22:30:02.883Z,0.55
2023-03-02T22:35:25.768Z,0.20
2023-03-02T22:40:31.744Z,1.23
2023-03-02T22:45:35.512Z,0.20
2023-03-02T22:50:38.432Z,0.38
2023-03-02T22:55:43.186Z,0.80
2023-03-02T23:00:47.922Z,0.38
2023-03-02T23:06:30.548Z,0.35
2023-03-02T23:12:00.221Z,0.20
2023-03-02T23:17:13.460Z,0.20
2023-03-02T23:22:16.397Z,1.48
2023-03-02T23:27:19.948Z,0.77
2023-03-02T23:32:31.229Z,1.67
2023-03-02T23:37:34.210Z,2.22
2023-03-02T23:42:37.484Z,1.05
2023-03-02T23:47:41.395Z,1.48
2023-03-02T23:52:45.427Z,0.93
2023-03-02T23:57:48.249Z,1.63
